Tiempo atmosférico en la estación meteorológica de La Roda de Andalucía, Sevilla (410 m.)



Fecha
DESCASC
Temp. máxima en grados centígrados (hora)
DESCASC
Temp. mínima en grados centígrados (hora)
DESCASC
Temp. media en grados centígrados
DESCASC
Racha de viento máxima en m/sg (hora)
DESCASC
Velocidad máxima media en intervalos de 10 minutos(hora)
DESCASC
Precipitaciones diarias en mm
DESCASC
Precipitaciones de 00:00 a 06:00 en mm
DESCASC
Precipitaciones de 06:00 a 12:00 en mm
DESCASC
Precipitaciones de 12:00 a 18:00 en mm
DESCASC
Precipitaciones de 18:00 a 24:00 en mm
DESCASC
15-11-2019 10.9 (14:30) 2.6 (00:00) 6.7 9.17 (12:00) 5.28 (12:00) 0 0 0 0 0
16-11-2019 12.5 (15:30) 1.5 (00:00) 7 7.22 (16:20) 3.89 (16:50) 0 0 0 0 0
14-11-2019 12.8 (03:20) 7.6 (00:00) 10.2 14.17 (14:00) 8.06 (14:00) 4.4 0 0.2 4.2 0
11-11-2019 12.9 (11:50) 8.4 (07:50) 10.6 8.89 (00:20) 5 (00:20) 0 0 0 0 0
08-11-2019 14 (16:50) 4.1 (23:59) 9 8.89 (11:30) 5.28 (11:30) 0 0 0 0 0
10-11-2019 14.6 (15:00) 8.6 (00:00) 11.6 13.89 (18:30) 7.78 (18:00) 0.6 0.6 0 0 0
12-11-2019 14.9 (17:00) 9 (00:00) 11.9 7.5 (14:00) 3.89 (16:40) 0 0 0 0 0
09-11-2019 15.3 (16:20) 0.6 (00:00) 8 6.39 (14:40) 4.17 (14:40) 0 0 0 0 0
06-11-2019 16.4 (15:30) 7.4 (00:00) 11.9 8.06 (15:10) 5 (15:40) 0 0 0 0 0
07-11-2019 16.5 (15:50) 7.3 (00:00) 11.9 9.72 (20:50) 5.83 (22:00) 3.6 0 1.8 1.8 0
05-11-2019 16.9 (15:40) 10.3 (00:00) 13.6 11.11 (02:40) 5.83 (02:30) 3.8 3.6 0.2 0 0
13-11-2019 17 (16:20) 9.8 (00:00) 13.4 13.06 (10:20) 7.5 (10:20) 1.2 0 0.8 0.4 0
23-10-2019 17 (14:20) 9.3 (00:00) 13.2 11.94 (14:50) 6.11 (14:40) 2.2 0 0 0.2 2
24-10-2019 18.2 (17:20) 8.6 (00:00) 13.4 8.33 (15:30) 3.61 (16:20) 0 0 0 0 0
20-10-2019 18.2 (15:30) 9.9 (00:00) 14.1 11.39 (00:30) 5 (16:10) 7.8 7.8 0 0 0
03-11-2019 18.7 (15:40) 14.6 (00:00) 16.7 12.22 (11:20) 6.67 (16:20) 5.4 5.2 0.2 0 0
04-11-2019 18.9 (11:50) 14.2 (00:00) 16.5 10 (13:50) 5.28 (12:00) 0.2 0 0.2 0 0
22-10-2019 19.7 (16:20) 7.2 (07:20) 13.5 8.33 (16:50) 5 (16:50) 0 0 0 0 0
21-10-2019 20 (17:20) 7.6 (00:00) 13.8 6.11 (14:50) 2.78 (01:10) 0 0 0 0 0
02-11-2019 21 (13:20) 16.1 (00:00) 18.6 10.28 (13:40) 5.56 (13:20) 8.8 0 6.8 2 0
29-10-2019 23.6 (13:30) 11.2 (00:00) 17.4 6.11 (15:20) 3.89 (15:30) 0 0 0 0 0
31-10-2019 23.8 (15:50) 14.6 (03:40) 19.2 8.61 (15:40) 4.44 (14:50) 0 0 0 0 0
01-11-2019 23.9 (16:00) 17.2 (00:00) 20.6 9.44 (18:10) 5.83 (18:10) 0 0 0 0 0
30-10-2019 24.7 (15:40) 11.1 (00:00) 17.9 7.5 (22:50) 4.17 (22:50) 0 0 0 0 0
19-10-2019 25 (14:10) 13.2 (00:00) 19.1 10 (20:00) 5.28 (19:30) 3.4 0 0 0 3.4
28-10-2019 25.1 (14:00) 11.8 (00:00) 18.5 6.67 (16:40) 3.61 (17:10) 0 0 0 0 0
18-10-2019 25.6 (17:00) 11.2 (00:00) 18.4 6.39 (15:20) 3.33 (15:40) 0 0 0 0 0
25-10-2019 25.9 (16:30) 5.9 (00:00) 15.9 11.39 (13:00) 5.83 (12:30) 0 0 0 0 0
27-10-2019 26.2 (13:40) 12.7 (00:00) 19.5 7.5 (12:10) 4.17 (19:40) 0 0 0 0 0
26-10-2019 29.2 (17:00) 10.1 (00:00) 19.7 8.33 (12:00) 4.17 (11:40) 0 0 0 0 0

Gráficas

Temp. máximas Temp. mínimas Temp. medias Precipitaciones Rachas de viento máximas Velocidades máximas media en intervalos de 10 minutos

Datos horarios

Fecha y hora oficial Temperatura (ºC) Velocidad del viento (km/h) Dirección del viento Racha (km/h) Dirección de racha Precipitación (mm) Presión (hPa) Tendencia (hPa) Humedad (%)
2019-11-16 23:00:00 3.4 7 Sur 11 Sudoeste 0 970.8 1 78
2019-11-16 22:00:00 2.5 7 Sur 10 Sur 0 970.6 1.2 83
2019-11-16 21:00:00 2.6 4 Sudeste 6 Sur 0 970.3 1.4 84
2019-11-16 20:00:00 3.5 4 Sur 6 Sudoeste 0 969.8 1.1 79
2019-11-16 19:00:00 6 6 Sudoeste 12 Sudoeste 0 969.4 1.4 68
2019-11-16 18:00:00 9.7 5 Oeste 21 Noroeste 0 968.9 1.4 50
2019-11-16 17:00:00 11.4 10 Oeste 26 Noroeste 0 968.7 0.9 43
2019-11-16 16:00:00 12.2 12 Oeste 21 Oeste 0 968 0.1 45
2019-11-16 15:00:00 11.4 6 Noroeste 18 Sudoeste 0 967.5 -0.7 47
2019-11-16 14:00:00 11.2 8 Oeste 18 Noroeste 0 967.8 0 51
2019-11-16 13:00:00 9.5 9 Norte 18 Norte 0 967.9 0.6 52
2019-11-16 12:00:00 8.5 8 Noroeste 12 Norte 0 968.2 2 56
2019-11-16 11:00:00 7.3 4 Noroeste 8 Norte 0 967.8 2.6 59
2019-11-16 10:00:00 4.9 2 Noroeste 7 Noroeste 0 967.3 3.3 69
2019-11-16 09:00:00 2.7 5 Oeste 12 Sudoeste 0 966.2 3 80
2019-11-16 08:00:00 1.7 8 Oeste 13 Oeste 0 965.2 2.2 83
2019-11-16 07:00:00 1.7 7 Oeste 14 Oeste 0 964 1.5 82
2019-11-16 06:00:00 2.1 8 Oeste 14 Oeste 0 963.2 1 81
2019-11-16 05:00:00 2.5 9 Oeste 14 Oeste 0 963 1.1 80
2019-11-16 04:00:00 2.3 7 Oeste 13 Oeste 0 962.5 0.7 82
2019-11-16 03:00:00 2.3 4 Oeste 12 Oeste 0 962.2 0.7 83
2019-11-16 02:00:00 2.7 8 Oeste 13 Oeste 0 961.9 0.6 87
2019-11-16 01:00:00 2.1 4 Sur 9 Sur 0 961.8 0.9 85
2019-11-16 00:00:00 2.6 6 Sur 12 Sudoeste 0 961.5 1.2 85
2019-11-15 23:00:00 3.1 5 Sur 9 Sur 0 961.3 1 84
2019-11-15 22:00:00 3.7 3 Sur 11 Sudoeste 0 960.9 0.6 80
2019-11-15 21:00:00 4.2 8 Sudoeste 13 Oeste 0 960.3 0.5 83
2019-11-15 20:00:00 5.1 4 Oeste 10 Oeste 0 960.3 0.6 79
2019-11-15 19:00:00 6.8 3 Sudoeste 8 Noroeste 0 960.3 0.9 73
2019-11-15 18:00:00 7.8 6 Oeste 11 Oeste 0 959.8 0.6 65
2019-11-15 17:00:00 7.9 11 Noroeste 26 Noroeste 0 959.7 0.1 62
2019-11-15 16:00:00 8.6 15 Noroeste 30 Noroeste 0 959.4 -0.9 56
2019-11-15 15:00:00 9.9 13 Oeste 30 Oeste 0 959.2 -1.8 51
2019-11-15 14:00:00 10.6 17 Oeste 30 Noroeste 0 959.6 -1.5 52
2019-11-15 13:00:00 9.9 17 Noroeste 32 Noroeste 0 960.3 -0.7 55
2019-11-15 12:00:00 9 19 Oeste 33 Oeste 0 961 0.2 57
2019-11-15 11:00:00 7.5 12 Noroeste 28 Noroeste 0 961.1 0.6 70
2019-11-15 10:00:00 6.4 16 Oeste 25 Oeste 0 961 0.8 79
2019-11-15 09:00:00 4.8 6 Oeste 15 Oeste 0 960.8 0.9 88
2019-11-15 08:00:00 4.1 9 Oeste 19 Oeste 0 960.5 0.4 87
2019-11-15 07:00:00 4.6 11 Oeste 18 Oeste 0 960.2 0 86
2019-11-15 06:00:00 4.6 5 Oeste 14 Oeste 0 959.9 -0.5 84
2019-11-15 05:00:00 5.6 10 Noroeste 19 Oeste 0 960.1 -0.5 80
2019-11-15 04:00:00 6.4 10 Oeste 17 Oeste 0 960.2 -0.8 79
2019-11-15 03:00:00 6.7 11 Oeste 19 Noroeste 0 960.4 -0.4 77
2019-11-15 02:00:00 7 5 Noroeste 18 Oeste 0 960.6 -0.3 80
2019-11-15 01:00:00 7.2 6 Noroeste 19 Sudoeste 0 961 -0.2 80
2019-11-15 00:00:00 7.6 12 Oeste 22 Sudoeste 0 960.8 0.1 79
2019-11-14 23:00:00 8 8 Oeste 24 Oeste 0 960.9 0 75
2019-11-14 22:00:00 8.8 14 Oeste 26 Oeste 0 961.2 0.6 72
2019-11-14 21:00:00 8.8 13 Oeste 28 Oeste 0 960.7 0.1 72
2019-11-14 20:00:00 8.1 6 Oeste 17 Oeste 0 960.9 1.3 72
2019-11-14 19:00:00 8.7 11 Oeste 35 Noroeste 0 960.6 0.9 68
2019-11-14 18:00:00 9.7 22 Noroeste 37 Oeste 0 960.6 0.1 68
2019-11-14 17:00:00 10.6 14 Oeste 33 Oeste 0 959.6 -0.9 75
2019-11-14 16:00:00 10.4 19 Oeste 33 Oeste 0 959.7 -1.2 82
2019-11-14 15:00:00 9.9 17 Oeste 42 Noroeste 1.2 960.5 -1.3 89
2019-11-14 14:00:00 9.8 29 Noroeste 51 Noroeste 2.2 960.5 -1.6 87
2019-11-14 13:00:00 10.9 25 Oeste 51 Oeste 0.8 960.9 -1.9 89
2019-11-14 12:00:00 11.3 22 Oeste 45 Oeste 0.2 961.8 -1.7 83
2019-11-14 11:00:00 12.5 22 Oeste 40 Oeste 0 962.1 -1.7 72
2019-11-14 10:00:00 11.4 15 Oeste 36 Oeste 0 962.8 -1.4 77
2019-11-14 09:00:00 9.8 7 Sur 15 Sudeste 0 963.5 -0.4 82
2019-11-14 08:00:00 9.5 6 Sudoeste 19 Noroeste 0 963.8 -0.5 82
2019-11-14 07:00:00 9.8 9 Oeste 25 Oeste 0 964.2 -0.5 85
2019-11-14 06:00:00 10.5 11 Oeste 26 Noroeste 0 963.9 -1.6 85
2019-11-14 05:00:00 11.7 10 Oeste 22 Noroeste 0 964.3 -1.8 84
2019-11-14 04:00:00 12.5 9 Oeste 25 Sudoeste 0 964.7 -1.8 84
2019-11-14 03:00:00 12.5 15 Sudoeste 26 Sudoeste 0 965.5 -1 86
2019-11-14 02:00:00 12.5 9 Sudoeste 22 Sudoeste 0 966.1 -1.6 84
2019-11-14 01:00:00 11.3 3 Este 19 Sudoeste 0 966.5 -0.7 88
2019-11-14 00:00:00 11.5 8 Sudoeste 16 Sudoeste 0 966.5 -0.7 90
2019-11-13 23:00:00 11.6 4 Sur 8 Norte 0 967.7 0.6 88
2019-11-13 22:00:00 11.9 2 Sudeste 11 Oeste 0 967.2 0.1 86
2019-11-13 21:00:00 13.1 12 Oeste 22 Oeste 0 967.2 0.4 85
2019-11-13 20:00:00 13.4 13 Sudoeste 19 Oeste 0 967.1 0.7 84
2019-11-13 19:00:00 13.5 11 Oeste 21 Noroeste 0 967.1 0.5 84
2019-11-13 18:00:00 15 10 Oeste 29 Oeste 0 966.8 -0.1 78
2019-11-13 17:00:00 15.7 9 Oeste 28 Oeste 0 966.4 -0.6 77
2019-11-13 16:00:00 16.5 17 Oeste 27 Oeste 0 966.6 -0.9 76
2019-11-13 15:00:00 14.6 14 Oeste 29 Oeste 0 966.9 -0.8 89
2019-11-13 14:00:00 14.1 12 Oeste 34 Oeste 0.4 967 -0.2 90
2019-11-13 13:00:00 14 15 Oeste 36 Oeste 0 967.5 0.5 86
2019-11-13 12:00:00 13.7 21 Oeste 40 Oeste 0 967.7 1.3 84
2019-11-13 11:00:00 13 18 Oeste 47 Oeste 0.2 967.2 1.5 89
2019-11-13 10:00:00 12.4 20 Oeste 36 Oeste 0.2 967 1.1 88
2019-11-13 09:00:00 12 14 Oeste 30 Sudoeste 0.4 966.4 0.3 86
2019-11-13 08:00:00 12.3 12 Oeste 22 Oeste 0 965.7 -0.5 81
2019-11-13 07:00:00 12 13 Oeste 22 Oeste 0 965.9 -0.7 85
2019-11-13 06:00:00 11.7 10 Oeste 18 Noroeste 0 966.1 -0.7 84
2019-11-13 05:00:00 10.8 4 Sudoeste 10 Sudoeste 0 966.2 -1.1 80
2019-11-13 04:00:00 10.9 3 Sudoeste 7 Este 0 966.6 -1 74
2019-11-13 03:00:00 10.7 3 Norte 11 Oeste 0 966.8 -1 70
2019-11-13 02:00:00 10.9 7 Sudoeste 15 Sudoeste 0 967.3 -0.7 67
2019-11-13 01:00:00 10.3 8 Sudoeste 12 Oeste 0 967.6 0 66
2019-11-13 00:00:00 10.5 6 Oeste 15 Sudoeste 0 967.8 0.3 62
2019-11-12 23:00:00 9.5 6 Sudoeste 16 Sudoeste 0 968 0.5 63
2019-11-12 22:00:00 9.8 9 Oeste 15 Oeste 0 967.6 0.5 62
2019-11-12 21:00:00 11.4 3 Noroeste 20 Norte 0 967.5 0.6 56
2019-11-12 20:00:00 10.4 8 Oeste 12 Oeste 0 967.5 0.6 73
2019-11-12 19:00:00 10.4 7 Sudoeste 10 Sudoeste 0 967.1 0.2 75
2019-11-12 18:00:00 13.4 6 Oeste 20 Oeste 0 966.9 -0.6 63
2019-11-12 17:00:00 14.8 9 Noroeste 24 Noroeste 0 966.9 -1.2 57
2019-11-12 16:00:00 14.6 13 Noroeste 25 Noroeste 0 966.9 -1.5 56
2019-11-12 15:00:00 13.7 12 Noroeste 22 Noroeste 0 967.5 -1 65
2019-11-12 14:00:00 12.5 10 Noroeste 27 Noroeste 0 968.1 -0.4 78
2019-11-12 13:00:00 12.7 6 Oeste 21 Noroeste 0 968.4 -0.2 81
2019-11-12 12:00:00 12.7 13 Norte 21 Norte 0 968.5 0.6 80
2019-11-12 11:00:00 11.9 7 Norte 14 Norte 0 968.5 1 87
2019-11-12 10:00:00 10.9 3 Noroeste 8 Noroeste 0 968.6 1.6 92
2019-11-12 09:00:00 10.3 7 Norte 13 Noroeste 0 967.9 0.7 92
2019-11-12 08:00:00 10 2 Nordeste 7 Nordeste 0 967.5 0.4 92
2019-11-12 07:00:00 9.9 3 Nordeste 7 Este 0 967 -0.7 92
2019-11-12 06:00:00 9.9 4 Nordeste 7 Nordeste 0 967.2 -0.2 92
2019-11-12 05:00:00 9.8 2 Este 6 Sur 0 967.1 -0.7 91
2019-11-12 04:00:00 10.3 2 Sur 6 Noroeste 0 967.7 -0.6 91
2019-11-12 03:00:00 11 3 Sur 7 Oeste 0 967.4 -1 91
2019-11-12 02:00:00 10.7 4 Sur 6 Sur 0 967.8 -1.1 91
2019-11-12 01:00:00 10.8 3 Sudoeste 5 Oeste 0 968.3 -0.3 91
2019-11-12 00:00:00 10.8 4 Sur 6 Nordeste 0 968.4 -0.1 91
2019-11-11 23:00:00 10.6 3 Sudoeste 6 Sur 0 968.9 0.4 91
2019-11-11 22:00:00 10.3 5 Sur 8 Sur 0 968.6 0.2 89
2019-11-11 21:00:00 11 3 Nordeste 9 Nordeste 0 968.5 0.2 89
2019-11-11 20:00:00 11.8 5 Nordeste 8 Nordeste 0 968.5 0.7 87
2019-11-11 19:00:00 12.5 4 Nordeste 10 Norte 0 968.4 0.4 85
2019-11-11 18:00:00 12.4 5 Nordeste 13 Noroeste 0 968.3 -0.2 87
2019-11-11 17:00:00 12.3 7 Noroeste 17 Noroeste 0 967.8 -1.2 87
2019-11-11 16:00:00 12.6 9 Noroeste 21 Oeste 0 968 -1.8 78
2019-11-11 15:00:00 12.5 12 Noroeste 20 Oeste 0 968.5 -1.9 76
2019-11-11 14:00:00 12.4 9 Noroeste 20 Noroeste 0 969 -1.6 71
2019-11-11 13:00:00 12.4 11 Noroeste 21 Oeste 0 969.8 -1.1 68
2019-11-11 12:00:00 12.5 12 Oeste 23 Oeste 0 970.4 -0.6 69
2019-11-11 11:00:00 12 9 Oeste 20 Noroeste 0 970.6 0 71
2019-11-11 10:00:00 10.5 7 Oeste 14 Oeste 0 970.9 0.5 82
2019-11-11 09:00:00 9.2 4 Oeste 12 Oeste 0 971 0.6 85
2019-11-11 08:00:00 8.4 6 Oeste 17 Noroeste 0 970.6 0.3 85
2019-11-11 07:00:00 9.2 8 Oeste 16 Noroeste 0 970.4 0.2 80
2019-11-11 06:00:00 9.6 7 Oeste 17 Oeste 0 970.4 -1 77
2019-11-11 05:00:00 9.5 9 Oeste 19 Oeste 0 970.3 -1.4 77
2019-11-11 04:00:00 9.8 9 Oeste 17 Noroeste 0 970.2 -1.2 72
2019-11-11 03:00:00 10.7 10 Noroeste 25 Noroeste 0 971.4 0 65
2019-11-11 02:00:00 10.8 13 Noroeste 28 Noroeste 0 971.7 0.5 64
2019-11-11 01:00:00 10.7 12 Noroeste 32 Noroeste 0 971.4 0.7 64
2019-11-11 00:00:00 10.8 13 Noroeste 24 Noroeste 0 971.4 0.1 64
2019-11-10 23:00:00 11 12 Noroeste 33 Noroeste 0 971.2 0.1 62
2019-11-10 22:00:00 10.8 14 Noroeste 37 Noroeste 0 970.7 -0.2 61
2019-11-10 21:00:00 11.2 19 Noroeste 34 Norte 0 971.3 0.6 57
2019-11-10 20:00:00 11.2 18 Noroeste 40 Norte 0 971.1 0.9 53
2019-11-10 19:00:00 11.2 22 Noroeste 50 Norte 0 970.9 1.1 52
2019-11-10 18:00:00 12.4 28 Noroeste 44 Noroeste 0 970.7 1 46
2019-11-10 17:00:00 13.9 17 Noroeste 41 Noroeste 0 970.2 -0.1 37
2019-11-10 16:00:00 14 24 Noroeste 40 Noroeste 0 969.8 -1.1 38
2019-11-10 15:00:00 14.5 16 Noroeste 42 Noroeste 0 969.7 -1.9 38
2019-11-10 14:00:00 13.6 19 Noroeste 37 Norte 0 970.3 -1.6 44
2019-11-10 13:00:00 12.8 18 Noroeste 33 Noroeste 0 970.9 -1.2 50
2019-11-10 12:00:00 12.1 15 Noroeste 33 Noroeste 0 971.6 0.1 58
2019-11-10 11:00:00 11.2 14 Noroeste 28 Noroeste 0 971.9 1.4 63
2019-11-10 10:00:00 10 15 Oeste 27 Oeste 0 972.1 2 75
2019-11-10 09:00:00 10.2 13 Noroeste 30 Noroeste 0 971.5 1.3 67
2019-11-10 08:00:00 9.1 12 Oeste 27 Noroeste 0 970.5 0.5 81
2019-11-10 07:00:00 9.6 16 Oeste 26 Oeste 0 970.1 -0.1 87
2019-11-10 06:00:00 10.8 16 Oeste 32 Noroeste 0 970.2 -0.2 86
2019-11-10 05:00:00 11.5 17 Noroeste 29 Noroeste 0 970 -0.9 85
2019-11-10 04:00:00 11.8 15 Noroeste 28 Oeste 0 970.2 -1.2 90
2019-11-10 03:00:00 11.8 11 Noroeste 32 Noroeste 0 970.4 -1.3 91
2019-11-10 02:00:00 11.3 15 Noroeste 27 Noroeste 0.4 970.9 -1.5 91
2019-11-10 01:00:00 10.6 9 Oeste 19 Oeste 0.2 971.4 -1.2 88
2019-11-10 00:00:00 11.2 8 Oeste 18 Sudoeste 0 971.7 -1.2 76
2019-11-09 23:00:00 11.4 9 Oeste 21 Oeste 0 972.4 -0.9 66
2019-11-09 22:00:00 10.1 4 Oeste 17 Sudoeste 0 972.6 -0.7 60
2019-11-09 21:00:00 9.6 8 Sudoeste 13 Sudoeste 0 972.9 -0.2 61
2019-11-09 20:00:00 8.7 5 Sur 8 Sur 0 973.3 0.1 70
2019-11-09 19:00:00 10 5 Sur 8 Sur 0 973.3 0.2 66
2019-11-09 18:00:00 12.8 5 Oeste 19 Noroeste 0 973.1 -0.3 48
2019-11-09 17:00:00 14.2 13 Oeste 23 Oeste 0 973.2 -0.8 41
2019-11-09 16:00:00 14.5 9 Norte 22 Noroeste 0 973.1 -1.7 38
2019-11-09 15:00:00 14.2 13 Norte 23 Norte 0 973.4 -2 40
2019-11-09 14:00:00 14.2 9 Norte 23 Norte 0 974 -1.6 41
2019-11-09 13:00:00 13.6 10 Norte 17 Norte 0 974.8 -0.7 41
2019-11-09 12:00:00 12.6 9 Norte 15 Norte 0 975.4 0 48
2019-11-09 11:00:00 11.1 3 Norte 8 Noroeste 0 975.6 0.8 51
2019-11-09 10:00:00 8.3 3 Sur 8 Sur 0 975.5 1.4 69
2019-11-09 09:00:00 3 3 Sudeste 11 Sur 0 975.4 1.8 91
2019-11-09 08:00:00 0.7 4 Sur 9 Sur 0 974.8 1.1 90
2019-11-09 07:00:00 1.2 7 Sur 9 Sur 0 974.1 0.1 90
2019-11-09 06:00:00 2.1 7 Sur 11 Sur 0 973.6 -0.5 89
2019-11-09 05:00:00 2 9 Sur 12 Sur 0 973.7 -0.7 90
2019-11-09 04:00:00 1.8 8 Sur 11 Sur 0 974 -0.5 88
2019-11-09 03:00:00 2.2 5 Sur 9 Sur 0 974.1 -0.4 87
2019-11-09 02:00:00 2.4 4 Sur 8 Sur 0 974.4 -0.2 86
2019-11-09 01:00:00 3.5 3 Sudoeste 10 Sur 0 974.5 0.6 83
2019-11-09 00:00:00 4.1 6 Sur 10 Sur 0 974.5 1 80
2019-11-08 23:00:00 4.8 8 Sur 10 Sur 0 974.6 1.6 77
2019-11-08 22:00:00 7 4 Oeste 9 Oeste 0 973.9 1.6 65
2019-11-08 21:00:00 6.1 3 Sudoeste 9 Sur 0 973.5 1.8 74
2019-11-08 20:00:00 6.6 6 Sudoeste 9 Sur 0 973 2 75
2019-11-08 19:00:00 8.6 5 Sudoeste 9 Oeste 0 972.3 1.6 65
2019-11-08 18:00:00 12.8 4 Noroeste 19 Noroeste 0 971.7 1.1 46
2019-11-08 17:00:00 13.7 13 Noroeste 24 Norte 0 971 0.3 37
2019-11-08 16:00:00 13.9 13 Norte 26 Norte 0 970.7 -0.4 39
2019-11-08 15:00:00 12.5 15 Noroeste 29 Noroeste 0 970.6 -0.7 44
2019-11-08 14:00:00 12.3 13 Noroeste 30 Noroeste 0 970.7 -0.5 49
2019-11-08 13:00:00 11.4 14 Noroeste 28 Noroeste 0 971.1 0.2 55
2019-11-08 12:00:00 12.6 16 Noroeste 32 Oeste 0 971.3 1 57
2019-11-08 11:00:00 11 15 Oeste 25 Noroeste 0 971.2 2 67
2019-11-08 10:00:00 9.3 15 Oeste 27 Oeste 0 970.9 2.4 78
2019-11-08 09:00:00 7.7 7 Oeste 20 Oeste 0 970.3 1.8 83
2019-11-08 08:00:00 6.8 9 Oeste 19 Oeste 0 969.2 0.9 86
2019-11-08 07:00:00 7 9 Oeste 17 Oeste 0 968.5 0.3 84
2019-11-08 06:00:00 6.9 10 Oeste 18 Oeste 0 968.5 0.4 81
2019-11-08 05:00:00 6.6 8 Oeste 18 Oeste 0 968.3 0.2 80
2019-11-08 04:00:00 6.8 9 Oeste 19 Oeste 0 968.2 -0.3 78
2019-11-08 03:00:00 7.5 12 Oeste 19 Oeste 0 968.1 -0.7 75
2019-11-08 02:00:00 7.4 11 Oeste 16 Oeste 0 968.1 -0.6 74
2019-11-08 01:00:00 7.9 9 Oeste 14 Oeste 0 968.5 0.4 72
2019-11-08 00:00:00 8.2 8 Oeste 19 Noroeste 0 968.8 1.1 70
2019-11-07 23:00:00 10.5 10 Noroeste 30 Noroeste 0 968.7 1.5 58
2019-11-07 22:00:00 12.2 21 Noroeste 35 Noroeste 0 968.1 1.5 47
2019-11-07 21:00:00 12.5 18 Noroeste 35 Noroeste 0 967.7 1.7 51
2019-11-07 20:00:00 9.2 4 Oeste 12 Sudoeste 0 967.2 1.4 82
2019-11-07 19:00:00 11.2 6 Sur 10 Noroeste 0 966.6 1 74
2019-11-07 18:00:00 14.9 8 Noroeste 21 Noroeste 0 966 0.6 57
2019-11-07 17:00:00 16.1 14 Noroeste 29 Oeste 0 965.8 -0.2 55
2019-11-07 16:00:00 15.5 15 Noroeste 28 Noroeste 0 965.6 -0.5 70
2019-11-07 15:00:00 15.5 9 Noroeste 28 Noroeste 0 965.4 -1.3 78
2019-11-07 14:00:00 14.4 13 Noroeste 33 Noroeste 0.4 966 -1 90
2019-11-07 13:00:00 14.7 11 Oeste 21 Oeste 1.4 966.1 -0.7 91
2019-11-07 12:00:00 13.9 7 Oeste 17 Oeste 1.6 966.7 -0.2 90
2019-11-07 11:00:00 13.6 10 Oeste 26 Sudoeste 0 967 0.2 86
2019-11-07 10:00:00 12.1 9 Sur 15 Sur 0 966.8 -0.1 89
2019-11-07 09:00:00 10.6 9 Sur 15 Sur 0.2 966.9 -0.4 91
2019-11-07 08:00:00 9.8 6 Sur 11 Sudoeste 0 966.8 -0.4 91
2019-11-07 07:00:00 9.2 9 Sur 17 Sur 0 966.9 -0.5 91
2019-11-07 06:00:00 8.2 7 Sur 12 Sur 0 967.3 -0.4 91
2019-11-07 05:00:00 8.3 5 Sur 9 Sudoeste 0 967.2 -0.9 91
2019-11-07 04:00:00 7.4 6 Sur 9 Sur 0 967.4 -1 89
2019-11-07 03:00:00 8.2 5 Sur 9 Sudoeste 0 967.7 -1.2 88
2019-11-07 02:00:00 9 2 Sudoeste 11 Sudoeste 0 968.1 -0.8 88
2019-11-07 01:00:00 9.3 7 Sudoeste 10 Sudoeste 0 968.4 -0.4 87
2019-11-07 00:00:00 10.3 7 Sudoeste 12 Sudoeste 0 968.9 0.3 85
2019-11-06 23:00:00 11 8 Sudoeste 14 Sudoeste 0 968.9 0 81
2019-11-06 22:00:00 10.9 7 Sudoeste 14 Sudoeste 0 968.8 0.3 77
2019-11-06 21:00:00 10.7 7 Sudoeste 14 Oeste 0 968.6 0.3 73
2019-11-06 20:00:00 10.7 8 Sudoeste 11 Sudoeste 0 968.9 0.5 74
2019-11-06 19:00:00 11.2 6 Sur 8 Sur 0 968.5 0.1 74
2019-11-06 18:00:00 14.6 5 Noroeste 22 Noroeste 0 968.3 -0.3 56
2019-11-06 17:00:00 16 14 Oeste 28 Noroeste 0 968.4 -0.8 50
2019-11-06 16:00:00 15.3 13 Norte 29 Noroeste 0 968.4 -1.4 49
2019-11-06 15:00:00 15.2 16 Noroeste 28 Noroeste 0 968.6 -1.9 47
2019-11-06 14:00:00 15.1 15 Noroeste 24 Norte 0 969.2 -1.6 49
2019-11-06 13:00:00 14.4 13 Norte 21 Norte 0 969.8 -0.8 49
2019-11-06 12:00:00 14.2 10 Nordeste 18 Norte 0 970.5 0 59
2019-11-06 11:00:00 12.7 7 Nordeste 12 Norte 0 970.8 1.1 67
2019-11-06 10:00:00 11.2 6 Oeste 15 Oeste 0 970.6 1.1 81
2019-11-06 09:00:00 8.7 3 Oeste 12 Oeste 0 970.5 1.1 90
2019-11-06 08:00:00 7.4 6 Sudoeste 13 Oeste 0 969.7 0.3 90
2019-11-06 07:00:00 7.8 7 Oeste 14 Oeste 0 969.5 -0.1 89
2019-11-06 06:00:00 8 8 Oeste 16 Oeste 0 969.4 -0.4 89
2019-11-06 05:00:00 8.2 9 Oeste 14 Oeste 0 969.4 -0.5 89
2019-11-06 04:00:00 8.5 8 Oeste 14 Oeste 0 969.6 -0.7 90
2019-11-06 03:00:00 8.9 6 Oeste 15 Oeste 0 969.8 -0.2 89
2019-11-06 02:00:00 9.7 8 Oeste 15 Oeste 0 969.9 0 89
2019-11-06 01:00:00 10.2 7 Oeste 13 Oeste 0 970.3 0.5 89
2019-11-06 00:00:00 10.9 8 Oeste 17 Oeste 0 970 0.8 89
2019-11-05 23:00:00 10.9 6 Sudoeste 12 Oeste 0 969.9 1.3 89
2019-11-05 22:00:00 11.9 7 Oeste 15 Oeste 0 969.8 1.7 86
2019-11-05 21:00:00 12.6 9 Oeste 14 Oeste 0 969.2 1.7 83
2019-11-05 20:00:00 13.6 9 Oeste 18 Oeste 0 968.6 1.1 77
2019-11-05 19:00:00 12.9 8 Oeste 14 Sudoeste 0 968.1 0.4 76
2019-11-05 18:00:00 14.6 8 Oeste 28 Oeste 0 967.5 -0.4 65
2019-11-05 17:00:00 15.4 12 Oeste 24 Oeste 0 967.5 -0.7 63
2019-11-05 16:00:00 15.5 15 Oeste 31 Noroeste 0 967.7 -0.9 60
2019-11-05 15:00:00 15.8 17 Oeste 32 Noroeste 0 967.9 -1 58
2019-11-05 14:00:00 15.2 15 Oeste 28 Noroeste 0 968.2 -0.8 60
2019-11-05 13:00:00 14.6 15 Noroeste 25 Noroeste 0 968.6 -0.3 61
2019-11-05 12:00:00 13.9 11 Noroeste 30 Noroeste 0.2 968.9 0.6 66
2019-11-05 11:00:00 13.8 13 Oeste 27 Oeste 0 969 1.2 68
2019-11-05 10:00:00 12.5 13 Oeste 23 Oeste 0 968.9 1.5 76
2019-11-05 09:00:00 10.9 9 Oeste 15 Oeste 0 968.3 1.6 86
2019-11-05 08:00:00 10.5 8 Oeste 15 Noroeste 0 967.8 1.8 85
2019-11-05 07:00:00 11.4 8 Noroeste 21 Noroeste 0 967.4 1.9 85
2019-11-05 06:00:00 12.1 15 Oeste 33 Oeste 0 966.7 1.1 85
2019-11-05 05:00:00 12.8 17 Noroeste 32 Noroeste 0 966 0.3 87
2019-11-05 04:00:00 13 14 Noroeste 30 Oeste 0.2 965.5 -0.2 90
2019-11-05 03:00:00 13.2 15 Oeste 40 Oeste 1.2 965.6 -0.5 90
2019-11-05 02:00:00 13.8 18 Oeste 36 Noroeste 2.2 965.7 -0.7 88
2019-11-05 01:00:00 14.8 10 Sudoeste 28 Sudoeste 0 965.7 -0.8 84
2019-11-05 00:00:00 15.1 10 Sudoeste 27 Sudoeste 0 966.1 -0.8 77
2019-11-04 23:00:00 15 10 Sudoeste 21 Oeste 0 966.4 -0.4 78
2019-11-04 22:00:00 15.6 8 Oeste 21 Sudoeste 0 966.5 -0.1 73
2019-11-04 21:00:00 15.7 10 Sudoeste 24 Sudoeste 0 966.9 0.6 72
2019-11-04 20:00:00 16 10 Sudoeste 30 Oeste 0 966.8 0.5 69
2019-11-04 19:00:00 16.4 14 Oeste 31 Oeste 0 966.6 -0.1 69
2019-11-04 18:00:00 16.9 14 Oeste 28 Oeste 0 966.3 -1.2 67
2019-11-04 17:00:00 17.3 11 Oeste 32 Sudoeste 0 966.3 -1.5 66
2019-11-04 16:00:00 17.4 12 Oeste 35 Oeste 0 966.7 -1.9 65
2019-11-04 15:00:00 17.6 17 Oeste 35 Oeste 0 967.5 -1.5 66
2019-11-04 14:00:00 18.2 14 Oeste 36 Oeste 0 967.8 -1.6 67
2019-11-04 13:00:00 17.3 14 Oeste 28 Oeste 0 968.6 -0.9 73
2019-11-04 12:00:00 18.4 19 Oeste 34 Oeste 0 969 -0.4 68
2019-11-04 11:00:00 16.5 14 Oeste 30 Oeste 0 969.4 0.5 80
2019-11-04 10:00:00 15.5 13 Oeste 31 Oeste 0 969.5 0.9 87
2019-11-04 09:00:00 15 11 Oeste 22 Oeste 0.2 969.4 0.6 90
2019-11-04 08:00:00 14.6 9 Oeste 18 Oeste 0 968.9 0.2 89
2019-11-04 07:00:00 14.4 9 Noroeste 18 Oeste 0 968.6 -0.4 89
2019-11-04 06:00:00 14.2 8 Oeste 28 Oeste 0 968.8 -0.5 90
2019-11-04 05:00:00 14.7 17 Oeste 30 Oeste 0 968.7 -0.9 87
2019-11-04 04:00:00 14.6 7 Oeste 17 Oeste 0 969 -0.8 85
2019-11-04 03:00:00 15.1 10 Oeste 32 Oeste 0 969.3 -0.6 83
2019-11-04 02:00:00 15.6 13 Oeste 30 Oeste 0 969.6 -0.5 83
2019-11-04 01:00:00 15.3 2 Sudeste 8 Nordeste 0 969.8 0.2 85
2019-11-04 00:00:00 15.9 4 Nordeste 16 Oeste 0 969.9 0.9 83
2019-11-03 23:00:00 16.1 6 Oeste 22 Oeste 0 970.1 1.8 82
2019-11-03 22:00:00 16.3 10 Oeste 21 Oeste 0 969.6 2.3 81
2019-11-03 21:00:00 16.6 9 Oeste 24 Oeste 0 969 2.6 81
2019-11-03 20:00:00 16.9 12 Oeste 26 Oeste 0 968.3 2.1 78
2019-11-03 19:00:00 17.1 11 Oeste 31 Oeste 0 967.3 1.4 76
2019-11-03 18:00:00 18.2 16 Oeste 41 Oeste 0 966.4 0.9 72
2019-11-03 17:00:00 18.4 23 Oeste 42 Oeste 0 966.2 0.3 72
2019-11-03 16:00:00 18.5 21 Oeste 42 Oeste 0 965.9 -0.3 71
2019-11-03 15:00:00 18.3 23 Oeste 40 Oeste 0 965.5 -1 70
2019-11-03 14:00:00 18.3 20 Oeste 42 Oeste 0 965.9 -0.4 73
2019-11-03 13:00:00 17.6 22 Oeste 39 Oeste 0 966.2 0.2 73
2019-11-03 12:00:00 17.3 15 Oeste 44 Oeste 0 966.5 1 76
2019-11-03 11:00:00 16.9 22 Oeste 38 Noroeste 0 966.3 1.5 75
2019-11-03 10:00:00 15.7 17 Oeste 32 Oeste 0 966 2 77
2019-11-03 09:00:00 15 15 Oeste 31 Oeste 0 965.5 1.7 82
2019-11-03 08:00:00 14.7 16 Oeste 33 Oeste 0 964.8 1.4 87
2019-11-03 07:00:00 14.9 18 Oeste 39 Oeste 0.2 964 0.2 88
2019-11-03 06:00:00 15.3 12 Oeste 31 Oeste 0.8 963.8 -0.2 91
2019-11-03 05:00:00 15.6 15 Oeste 33 Oeste 0 963.4 -0.8 91
2019-11-03 04:00:00 15.7 17 Oeste 30 Oeste 4 963.8 -1.2 91
2019-11-03 03:00:00 16 9 Oeste 24 Oeste 0.2 964 -0.7 89
2019-11-03 02:00:00 16 14 Oeste 35 Oeste 0 964.2 -0.9 88
2019-11-03 01:00:00 16.2 16 Oeste 37 Oeste 0.2 965 -0.3 87
2019-11-03 00:00:00 16.5 13 Oeste 32 Oeste 0 964.7 -0.6 83
2019-11-02 23:00:00 16.6 11 Oeste 32 Sudoeste 0 965.1 -0.3 81
2019-11-02 22:00:00 16.6 12 Sudoeste 26 Sudoeste 0 965.3 -0.1 78
2019-11-02 21:00:00 16.6 13 Oeste 26 Sudoeste 0 965.3 0.3 80
2019-11-02 20:00:00 17.2 12 Sudoeste 28 Oeste 0 965.4 0.3 76
2019-11-02 19:00:00 17.9 12 Oeste 28 Sudoeste 0 965.4 -0.1 74
2019-11-02 18:00:00 19.3 13 Oeste 30 Sudoeste 0 965 -1.1 69
2019-11-02 17:00:00 19.9 19 Oeste 35 Oeste 0 965.1 -1.5 66
2019-11-02 16:00:00 19.9 12 Oeste 34 Oeste 0 965.5 -2 75
2019-11-02 15:00:00 20.1 16 Oeste 32 Oeste 0 966.1 -2.1 69
2019-11-02 14:00:00 20.6 18 Oeste 37 Oeste 0 966.6 -1.9 72
2019-11-02 13:00:00 19.9 18 Oeste 35 Oeste 2 967.5 -1.3 77
2019-11-02 12:00:00 19.9 19 Oeste 34 Oeste 0 968.2 -0.9 77
2019-11-02 11:00:00 17.8 11 Oeste 24 Oeste 5.2 968.5 -0.2 87
2019-11-02 10:00:00 18 8 Oeste 31 Oeste 0 968.8 -0.3 86
2019-11-02 09:00:00 17.1 14 Oeste 26 Oeste 0 969.1 -0.5 88
2019-11-02 08:00:00 16.9 6 Sudoeste 26 Oeste 1.6 968.7 -1.1 89
2019-11-02 07:00:00 17 8 Oeste 18 Sudoeste 0 969.1 -1.4 84
2019-11-02 06:00:00 16.9 8 Sudoeste 18 Oeste 0 969.6 -1.6 84
2019-11-02 05:00:00 17 9 Sudoeste 18 Sudoeste 0 969.8 -1.8 82
2019-11-02 04:00:00 16.7 8 Sudoeste 13 Sudoeste 0 970.5 -1.8 86
2019-11-02 03:00:00 17.1 7 Sudoeste 23 Oeste 0 971.2 -1.6 87
2019-11-02 02:00:00 17.6 12 Oeste 23 Sudoeste 0 971.6 -1.7 84
2019-11-02 01:00:00 17.5 5 Oeste 22 Oeste 0 972.3 -1.2 85
2019-11-02 00:00:00 17.3 11 Oeste 27 Oeste 0 972.8 -0.8 86
2019-11-01 23:00:00 17.5 10 Oeste 17 Oeste 0 973.3 -0.2 84
2019-11-01 22:00:00 18.4 13 Oeste 27 Oeste 0 973.5 0.2 81
2019-11-01 21:00:00 18.9 16 Oeste 34 Oeste 0 973.6 0.4 79
2019-11-01 20:00:00 19.6 13 Oeste 25 Oeste 0 973.5 0.3 76
2019-11-01 19:00:00 20.6 15 Oeste 34 Oeste 0 973.3 -0.3 71
2019-11-01 18:00:00 21.9 20 Oeste 33 Oeste 0 973.2 -0.9 64
2019-11-01 17:00:00 22.9 12 Oeste 27 Oeste 0 973.2 -1.6 58
2019-11-01 16:00:00 23.6 15 Oeste 27 Noroeste 0 973.6 -1.9 54
2019-11-01 15:00:00 23.2 13 Noroeste 27 Noroeste 0 974.1 -2.2 57
2019-11-01 14:00:00 22.9 9 Oeste 21 Oeste 0 974.8 -1.8 59
2019-11-01 13:00:00 21.2 8 Noroeste 21 Norte 0 975.5 -1.1 65
2019-11-01 12:00:00 20.1 11 Noroeste 19 Noroeste 0 976.3 0.1 70
2019-11-01 11:00:00 19.3 10 Noroeste 21 Noroeste 0 976.6 0.6 76
2019-11-01 10:00:00 18.5 9 Oeste 16 Oeste 0 976.6 0.7 81
2019-11-01 09:00:00 17.9 8 Oeste 15 Oeste 0 976.2 0.3 84
2019-11-01 08:00:00 17.7 6 Oeste 13 Oeste 0 976 0.4 86
2019-11-01 07:00:00 18 9 Oeste 15 Noroeste 0 975.9 0.1 83
2019-11-01 06:00:00 18.3 7 Oeste 21 Noroeste 0 975.9 -0.2 81
2019-11-01 05:00:00 18.6 11 Noroeste 19 Noroeste 0 975.6 -0.6 79
2019-11-01 04:00:00 18.5 9 Oeste 15 Oeste 0 975.8 -0.6 86
2019-11-01 03:00:00 18.8 9 Oeste 20 Oeste 0 976.1 -0.5 84
2019-11-01 02:00:00 19.3 12 Oeste 24 Oeste 0 976.2 -0.4 82
2019-11-01 01:00:00 19.4 8 Noroeste 17 Oeste 0 976.4 -0.4 81
2019-11-01 00:00:00 19.4 9 Oeste 18 Oeste 0 976.6 0.1 80
2019-10-31 23:00:00 19.2 9 Oeste 14 Oeste 0 976.6 0.1 79
2019-10-31 22:00:00 19.1 8 Oeste 14 Sudoeste 0 976.8 0.7 79
2019-10-31 21:00:00 18.8 8 Sudoeste 12 Sudoeste 0 976.5 0.8 75
2019-10-31 20:00:00 20 6 Sudoeste 15 Noroeste 0 976.5 0.8 70
2019-10-31 19:00:00 21.2 6 Oeste 15 Oeste 0 976.1 0.7 63
2019-10-31 18:00:00 22.3 10 Noroeste 20 Noroeste 0 975.7 -0.2 59
2019-10-31 17:00:00 23.1 10 Noroeste 23 Norte 0 975.7 -0.8 54
2019-10-31 16:00:00 23.3 12 Noroeste 31 Noroeste 0 975.4 -1.8 51
2019-10-31 15:00:00 23.1 16 Noroeste 28 Oeste 0 975.9 -1.8 51
2019-10-31 14:00:00 21.4 13 Noroeste 21 Norte 0 976.5 -1.1 58
2019-10-31 13:00:00 20.7 10 Norte 18 Norte 0 977.2 0 67
2019-10-31 12:00:00 19.4 8 Noroeste 14 Noroeste 0 977.7 0.8 75
2019-10-31 11:00:00 19 6 Norte 12 Norte 0 977.6 1.5 76
2019-10-31 10:00:00 18.6 6 Norte 10 Norte 0 977.2 1.3 76
2019-10-31 09:00:00 17.3 4 Sudoeste 9 Sudoeste 0 976.9 0.9 82
2019-10-31 08:00:00 16.5 3 Sudoeste 8 Oeste 0 976.1 0.4 85
2019-10-31 07:00:00 16.2 0 Calma 8 Sudoeste 0 975.9 0.1 86
2019-10-31 06:00:00 15.3 5 Oeste 12 Oeste 0 976 -0.1 87
2019-10-31 05:00:00 15.7 6 Oeste 11 Sudoeste 0 975.7 -0.4 86
2019-10-31 04:00:00 15.4 6 Oeste 10 Sudoeste 0 975.8 -0.3 86
2019-10-31 03:00:00 15.7 6 Sudoeste 10 Sudoeste 0 976.1 -0.1 81
2019-10-31 02:00:00 16.9 3 Sur 9 Sudoeste 0 976.1 -0.2 76
2019-10-31 01:00:00 17.7 5 Sudeste 20 Oeste 0 976.1 0.1 70
2019-10-31 00:00:00 18.1 9 Sudoeste 24 Oeste 0 976.2 0.6 68
2019-10-30 23:00:00 18.8 13 Oeste 27 Oeste 0 976.3 1 64
2019-10-30 22:00:00 19.3 13 Oeste 22 Oeste 0 976 1.3 58
2019-10-30 21:00:00 19.3 12 Oeste 24 Oeste 0 975.6 1.3 58
2019-10-30 20:00:00 17.9 4 Sur 8 Noroeste 0 975.3 1.2 60
2019-10-30 19:00:00 20.2 6 Oeste 15 Noroeste 0 974.7 0.7 52
2019-10-30 18:00:00 22.5 7 Oeste 17 Noroeste 0 974.3 0.4 42
2019-10-30 17:00:00 23.4 10 Noroeste 19 Norte 0 974.1 -0.1 39
2019-10-30 16:00:00 23.3 11 Norte 22 Oeste 0 974 -0.7 39
2019-10-30 15:00:00 24.3 10 Noroeste 21 Nordeste 0 973.9 -1.2 36
2019-10-30 14:00:00 23.8 11 Norte 19 Norte 0 974.2 -1.1 40
2019-10-30 13:00:00 23.7 8 Norte 21 Norte 0 974.7 -0.4 43
2019-10-30 12:00:00 22.3 6 Norte 13 Norte 0 975.1 0.7 52
2019-10-30 11:00:00 21.6 3 Oeste 6 Noroeste 0 975.3 1.7 58
2019-10-30 10:00:00 18 3 Sur 8 Sur 0 975.1 1.7 74
2019-10-30 09:00:00 13.3 4 Sur 9 Sur 0 974.4 1.1 90
2019-10-30 08:00:00 11.7 6 Sur 12 Sur 0 973.6 0.7 90
2019-10-30 07:00:00 11.2 6 Sur 9 Sur 0 973.4 0.6 89
2019-10-30 06:00:00 11.7 6 Sur 9 Sur 0 973.3 0.5 88
2019-10-30 05:00:00 12.3 4 Sur 9 Sur 0 972.9 -0.4 86
2019-10-30 04:00:00 13.5 7 Sur 12 Sur 0 972.8 -0.5 85
2019-10-30 03:00:00 13.5 8 Sur 12 Sur 0 972.8 -0.1 86
2019-10-30 02:00:00 14.5 5 Oeste 11 Oeste 0 973.3 0.6 87
2019-10-30 01:00:00 14.9 2 Noroeste 13 Oeste 0 973.3 0.7 81
2019-10-30 00:00:00 14.5 6 Sudoeste 10 Sudoeste 0 972.9 0.9 80
2019-10-29 23:00:00 14.9 2 Oeste 9 Oeste 0 972.7 1 78
2019-10-29 22:00:00 13.5 4 Sur 6 Sudoeste 0 972.6 1.6 77
2019-10-29 21:00:00 14.3 4 Sur 7 Sur 0 972 1.1 73
2019-10-29 20:00:00 15.6 4 Sudoeste 6 Sudoeste 0 971.7 1.1 69
2019-10-29 19:00:00 18.2 3 Sudoeste 9 Norte 0 971 0.7 60
2019-10-29 18:00:00 21.2 9 Norte 17 Noroeste 0 970.9 0.6 50
2019-10-29 17:00:00 22.3 9 Norte 19 Norte 0 970.6 -0.1 47
2019-10-29 16:00:00 22.2 10 Noroeste 22 Norte 0 970.3 -0.7 47
2019-10-29 15:00:00 21.6 8 Noroeste 17 Noroeste 0 970.3 -1.1 53
2019-10-29 14:00:00 21.6 10 Noroeste 17 Noroeste 0 970.7 -0.8 52
2019-10-29 13:00:00 21.7 7 Norte 17 Norte 0 971 -0.4 53
2019-10-29 12:00:00 20.7 6 Oeste 12 Noroeste 0 971.4 0.3 57
2019-10-29 11:00:00 20.4 3 Este 10 Este 0 971.5 1.1 62
2019-10-29 10:00:00 17.6 5 Norte 10 Nordeste 0 971.4 1.7 78
2019-10-29 09:00:00 14.6 3 Noroeste 7 Norte 0 971.1 1.6 91
2019-10-29 08:00:00 12.3 4 Sur 9 Sur 0 970.4 0.7 91
2019-10-29 07:00:00 11.7 5 Sur 8 Sur 0 969.7 0.1 89
2019-10-29 06:00:00 12.6 6 Sur 8 Sur 0 969.5 -0.3 87
2019-10-29 05:00:00 14.8 3 Oeste 9 Oeste 0 969.7 -0.4 83
2019-10-29 04:00:00 15.7 3 Oeste 7 Sudoeste 0 969.6 -0.8 83
2019-10-29 03:00:00 15.7 4 Sur 7 Oeste 0 969.8 -0.8 82
2019-10-29 02:00:00 15.9 3 Oeste 8 Oeste 0 970.1 -0.5 82
2019-10-29 01:00:00 15.9 4 Noroeste 16 Oeste 0 970.4 -0.1 81
2019-10-29 00:00:00 14.9 5 Oeste 11 Noroeste 0 970.6 0.5 83
2019-10-28 23:00:00 13.5 3 Sur 7 Sur 0 970.6 0.6 82
2019-10-28 22:00:00 14 4 Sudoeste 7 Sudoeste 0 970.5 0.6 78
2019-10-28 21:00:00 15.2 3 Sur 6 Oeste 0 970.1 0.5 75
2019-10-28 20:00:00 16.9 0 Calma 11 Noroeste 0 970 0.4 69
2019-10-28 19:00:00 19.3 6 Noroeste 16 Noroeste 0 969.9 0.3 61
2019-10-28 18:00:00 20.9 10 Noroeste 21 Oeste 0 969.6 -0.2 53
2019-10-28 17:00:00 22.5 13 Oeste 24 Noroeste 0 969.6 -0.7 44
2019-10-28 16:00:00 24.1 9 Oeste 21 Noroeste 0 969.6 -1.4 38
2019-10-28 15:00:00 24.1 9 Noroeste 18 Noroeste 0 969.8 -1.8 33
2019-10-28 14:00:00 24.2 6 Oeste 15 Sudoeste 0 970.3 -1.4 30
2019-10-28 13:00:00 23.7 5 Sur 18 Sur 0 971 -0.7 30
2019-10-28 12:00:00 21.3 6 Sur 15 Sur 0 971.6 0.2 39
2019-10-28 11:00:00 17.5 5 Sudeste 11 Sur 0 971.7 0.7 59
2019-10-28 10:00:00 16.2 4 Sur 9 Sur 0 971.7 1.1 70
2019-10-28 09:00:00 14.3 5 Oeste 15 Oeste 0 971.4 1.1 88
2019-10-28 08:00:00 14.2 5 Oeste 11 Sudoeste 0 971 1 79
2019-10-28 07:00:00 13.5 6 Sudoeste 10 Sudoeste 0 970.6 0.2 65
2019-10-28 06:00:00 13.1 3 Sudeste 11 Sudoeste 0 970.3 -0.3 66
2019-10-28 05:00:00 13.6 8 Sudeste 14 Sudeste 0 970 -0.8 63
2019-10-28 04:00:00 12.9 6 Sur 14 Sur 0 970.4 -1.6 65
2019-10-28 03:00:00 12.9 7 Sur 13 Sur 0 970.6 -1.4 64
2019-10-28 02:00:00 12.4 6 Sudeste 14 Sudeste 0 970.8 -1.5 68
2019-10-28 01:00:00 13 3 Sur 8 Sur 0 972 0 61
2019-10-28 00:00:00 14.3 6 Sur 12 Sudoeste 0 972 0.3 56
2019-10-27 23:00:00 16.1 7 Sur 17 Sudoeste 0 972.3 0.9 51
2019-10-27 22:00:00 16 10 Sur 21 Sudoeste 0 972 1.2 51
2019-10-27 21:00:00 16.7 10 Sur 25 Sur 0 971.7 1.2 49
2019-10-27 20:00:00 17.9 13 Sur 26 Sur 0 971.4 0.9 45
2019-10-27 19:00:00 18.9 12 Sur 20 Sur 0 970.8 0.1 40
2019-10-27 18:00:00 22 11 Sur 24 Sudoeste 0 970.5 -0.4 28
2019-10-27 17:00:00 24.4 10 Sur 25 Sur 0 970.5 -0.6 27
2019-10-27 16:00:00 24.6 12 Sur 24 Sur 0 970.7 -1.1 26
2019-10-27 15:00:00 25.3 12 Sur 26 Sur 0 970.9 -1.6 25
2019-10-27 14:00:00 25.7 12 Sur 24 Sur 0 971.1 -1.6 24
2019-10-27 13:00:00 25.1 12 Sur 27 Sur 0 971.8 -0.8 24
2019-10-27 12:00:00 23.9 13 Sur 24 Sur 0 972.5 0.3 28
2019-10-27 11:00:00 22.5 11 Sur 24 Sudoeste 0 972.7 1.2 30
2019-10-27 10:00:00 19.7 11 Sur 24 Sur 0 972.6 1.5 37
2019-10-27 09:00:00 15.5 11 Sur 22 Sur 0 972.2 1.2 49
2019-10-27 08:00:00 12.7 10 Sur 18 Sur 0 971.5 0.6 54
2019-10-27 07:00:00 13.4 4 Sur 18 Sur 0 971.1 0.1 51
2019-10-27 06:00:00 13.6 9 Sur 18 Sur 0 971 -0.2 51
2019-10-27 05:00:00 13.9 9 Sur 16 Sur 0 970.9 -0.7 50
2019-10-27 04:00:00 14.1 5 Sudeste 20 Sur 0 971 -0.7 49
2019-10-27 03:00:00 14.8 10 Sur 19 Sur 0 971.2 -0.6 48
2019-10-27 02:00:00 14.4 9 Sur 19 Sur 0 971.6 -0.4 49
2019-10-27 01:00:00 15.4 15 Sur 22 Sur 0 971.8 0 46
2019-10-27 00:00:00 16.1 13 Sur 18 Sur 0 972 0.7 45
2019-10-26 23:00:00 17.1 13 Sur 17 Sur 0 972.1 1.1 42
2019-10-26 22:00:00 17.6 9 Sur 17 Sur 0 971.8 1.3 41
2019-10-26 21:00:00 18.8 9 Sur 16 Sur 0 971.3 1.1 38
2019-10-26 20:00:00 21.1 9 Sur 17 Sur 0 971 0.6 33
2019-10-26 19:00:00 25.5 8 Sur 17 Sur 0 970.5 -0.1 24
2019-10-26 18:00:00 28.2 6 Sur 15 Sudeste 0 970.2 -0.9 17
2019-10-26 17:00:00 29.1 7 Sur 18 Sur 0 970.4 -1.4 17
2019-10-26 16:00:00 28.6 8 Sur 17 Sur 0 970.6 -1.8 17
2019-10-26 15:00:00 28.4 6 Sur 19 Sur 0 971.1 -1.5 17
2019-10-26 14:00:00 27.3 9 Sudoeste 24 Sur 0 971.8 -0.7 19
2019-10-26 13:00:00 25.2 12 Sur 26 Sur 0 972.4 0.2 26
2019-10-26 12:00:00 22.5 13 Sur 30 Sur 0 972.6 0.7 30
2019-10-26 11:00:00 18.3 13 Sur 24 Sur 0 972.5 1.1 44
2019-10-26 10:00:00 14.3 10 Sur 19 Sur 0 972.2 1 53
2019-10-26 09:00:00 10.7 4 Sudeste 8 Sur 0 971.9 0.8 64
2019-10-26 08:00:00 10.5 6 Sudeste 18 Sur 0 971.4 0 65
2019-10-26 07:00:00 11.5 10 Sur 16 Sudoeste 0 971.2 -0.7 61
2019-10-26 06:00:00 11 3 Sur 13 Sudoeste 0 971.1 -1.2 63
2019-10-26 05:00:00 11.2 4 Nordeste 12 Sur 0 971.4 -1.1 64
2019-10-26 04:00:00 11.8 7 Sur 14 Sudeste 0 971.9 -0.8 61
2019-10-26 03:00:00 11.7 3 Sur 13 Sur 0 972.3 -0.6 61
2019-10-26 02:00:00 13.1 9 Sur 22 Sur 0 972.5 -0.5 56
2019-10-26 01:00:00 12.8 13 Sur 23 Sur 0 972.7 -0.2 58
2019-10-26 00:00:00 14.1 15 Sur 24 Sur 0 972.9 0.3 54
2019-10-25 23:00:00 13.5 10 Sur 18 Sur 0 973 0.9 57
2019-10-25 22:00:00 14.5 8 Sur 16 Sur 0 972.9 1 52
2019-10-25 21:00:00 16.5 10 Sur 18 Sur 0 972.6 0.6 46
2019-10-25 20:00:00 19 12 Sur 22 Sur 0 972.1 0.1 37
2019-10-25 19:00:00 22.5 11 Sur 22 Sudeste 0 971.9 -0.5 30
2019-10-25 18:00:00 25.1 9 Sur 22 Sur 0 972 -0.9 25
2019-10-25 17:00:00 25.6 11 Sur 22 Sudeste 0 972 -1.5 24
2019-10-25 16:00:00 25.5 11 Sur 27 Sur 0 972.4 -1.5 24
2019-10-25 15:00:00 24.7 14 Sur 30 Sur 0 972.9 -1.4 27
2019-10-25 14:00:00 23.4 18 Sur 34 Sudeste 0 973.5 -0.9 29
2019-10-25 13:00:00 22.4 20 Sur 41 Sur 0 973.9 -0.3 31
2019-10-25 12:00:00 20.6 13 Sur 24 Sur 0 974.3 0.5 37
2019-10-25 11:00:00 16.4 8 Sudeste 15 Sudeste 0 974.4 0.9 53
2019-10-25 10:00:00 11.1 4 Sudeste 10 Sudeste 0 974.2 0.8 79
2019-10-25 09:00:00 7.2 6 Sur 10 Sudoeste 0 973.8 0.3 92
2019-10-25 08:00:00 6.4 4 Sur 9 Sur 0 973.5 0 92
2019-10-25 07:00:00 6.4 3 Este 6 Sur 0 973.4 -0.6 91
2019-10-25 06:00:00 7.3 5 Sur 12 Sur 0 973.5 -0.7 91
2019-10-25 05:00:00 6.8 4 Sur 9 Sur 0 973.5 -1 91
2019-10-25 04:00:00 7.1 7 Sur 8 Sur 0 974 -0.8 91
2019-10-25 03:00:00 8 3 Sur 12 Sur 0 974.2 -0.8 90
2019-10-25 02:00:00 7.3 4 Sur 8 Sur 0 974.5 -0.3 89
2019-10-25 01:00:00 8.5 4 Sur 11 Sur 0 974.8 0.1 87
2019-10-25 00:00:00 9.2 8 Sur 12 Sur 0 975 0.8 88
2019-10-24 23:00:00 8.8 6 Sur 9 Sur 0 974.8 1.1 87
2019-10-24 22:00:00 9.7 6 Sur 9 Sur 0 974.7 1.6 83
2019-10-24 21:00:00 11.1 5 Sur 9 Sur 0 974.2 1.6 77
2019-10-24 20:00:00 14.2 6 Sur 12 Norte 0 973.7 1.1 62
2019-10-24 19:00:00 16.8 7 Norte 18 Norte 0 973.1 0.5 46
2019-10-24 18:00:00 17.7 11 Norte 21 Norte 0 972.6 -0.3 44
2019-10-24 17:00:00 17.9 9 Norte 23 Norte 0 972.6 -0.5 43
2019-10-24 16:00:00 18 12 Norte 30 Norte 0 972.6 -0.7 46
2019-10-24 15:00:00 17.1 11 Norte 19 Nordeste 0 972.9 -0.5 50
2019-10-24 14:00:00 16.1 4 Noroeste 15 Norte 0 973.1 0.1 55
2019-10-24 13:00:00 16.1 6 Oeste 11 Noroeste 0 973.3 1 58
2019-10-24 12:00:00 14.4 3 Este 16 Oeste 0 973.4 2.4 64
2019-10-24 11:00:00 12.5 9 Oeste 20 Oeste 0 973 2.6 75
2019-10-24 10:00:00 10.1 10 Oeste 16 Oeste 0 972.3 2.6 87
2019-10-24 09:00:00 8.6 10 Oeste 18 Oeste 0 971 2 89
2019-10-24 08:00:00 8.9 11 Oeste 17 Oeste 0 970.4 2 88
2019-10-24 07:00:00 9.7 9 Oeste 14 Oeste 0 969.7 1.2 87
2019-10-24 06:00:00 10.2 4 Sudoeste 14 Sudoeste 0 969 0.8 87
2019-10-24 05:00:00 10.1 9 Sudoeste 15 Oeste 0 968.4 0.4 87
2019-10-24 04:00:00 10.2 8 Sudoeste 14 Oeste 0 968.5 0.8 85
2019-10-24 03:00:00 11.3 9 Oeste 22 Oeste 0 968.2 0.9 81
2019-10-24 02:00:00 11.9 7 Oeste 14 Noroeste 0 968 1.4 77
2019-10-24 01:00:00 12.2 6 Oeste 16 Oeste 0 967.7 2 78
2019-10-24 00:00:00 11.7 4 Oeste 7 Oeste 0 967.3 2 86
2019-10-23 23:00:00 11.9 6 Noroeste 15 Oeste 0 966.6 2.1 85
2019-10-23 22:00:00 11.9 7 Oeste 14 Oeste 0 965.7 1.5 88
2019-10-23 21:00:00 12 4 Sudoeste 11 Oeste 0 965.3 1.9 88
2019-10-23 20:00:00 12 6 Sudoeste 15 Oeste 0.2 964.5 1.5 88
2019-10-23 19:00:00 12.1 9 Oeste 22 Oeste 1.8 964.2 1.7 86
2019-10-23 18:00:00 13.5 11 Sudoeste 30 Oeste 0 963.4 0.7 73
2019-10-23 17:00:00 13.7 16 Oeste 33 Oeste 0.2 963 0 69
2019-10-23 16:00:00 16.1 22 Oeste 39 Oeste 0 962.5 -1.3 53
2019-10-23 15:00:00 15.6 20 Oeste 43 Oeste 0 962.7 -1.1 50
2019-10-23 14:00:00 16.1 15 Oeste 30 Oeste 0 963 -0.5 51
2019-10-23 13:00:00 15.3 11 Oeste 26 Noroeste 0 963.8 1 54
2019-10-23 12:00:00 15.1 10 Oeste 26 Sudoeste 0 963.8 1.2 54
2019-10-23 11:00:00 14.1 11 Sudoeste 18 Sudoeste 0 963.5 1 59
2019-10-23 10:00:00 11 8 Sudoeste 13 Sur 0 962.8 1 81
2019-10-23 09:00:00 9.3 8 Sudoeste 16 Sudoeste 0 962.6 0.7 84
2019-10-23 08:00:00 9.5 12 Oeste 18 Sudoeste 0 962.5 0.7 86
2019-10-23 07:00:00 9.8 10 Oeste 18 Oeste 0 961.8 -0.1 87
2019-10-23 06:00:00 10 9 Sudoeste 19 Oeste 0 961.9 -0.1 85
2019-10-23 05:00:00 9.7 10 Sudoeste 19 Sudoeste 0 961.8 -0.5 82
2019-10-23 04:00:00 10.5 10 Sudoeste 22 Sudoeste 0 961.9 -0.5 76
2019-10-23 03:00:00 11.3 10 Sudoeste 19 Sudoeste 0 962 -0.6 76
2019-10-23 02:00:00 10.2 4 Sudoeste 12 Sur 0 962.3 -0.9 77
2019-10-23 01:00:00 10.1 8 Sur 13 Sur 0 962.4 -0.4 77
2019-10-23 00:00:00 10.5 3 Oeste 22 Oeste 0 962.6 0.4 72
2019-10-22 23:00:00 11 5 Sudoeste 16 Oeste 0 963.2 1.4 68
2019-10-22 22:00:00 11.9 8 Oeste 15 Oeste 0 962.8 1.8 63
2019-10-22 21:00:00 12.2 8 Oeste 24 Oeste 0 962.2 1.5 61
2019-10-22 20:00:00 13.4 14 Oeste 28 Oeste 0 961.8 0.9 57
2019-10-22 19:00:00 14.9 13 Oeste 27 Oeste 0 961 0 55
2019-10-22 18:00:00 15.6 14 Oeste 27 Oeste 0 960.7 -0.7 53
2019-10-22 17:00:00 16.6 13 Sudoeste 30 Sudoeste 0 960.9 -1.3 49
2019-10-22 16:00:00 18.8 13 Oeste 23 Oeste 0 961 -2.2 36
2019-10-22 15:00:00 17.8 13 Norte 22 Norte 0 961.4 -2.1 37
2019-10-22 14:00:00 17.6 13 Norte 23 Norte 0 962.2 -1.5 38
2019-10-22 13:00:00 16.5 11 Norte 17 Norte 0 963.2 -0.7 46
2019-10-22 12:00:00 15.4 6 Norte 12 Norte 0 963.5 0.2 50
2019-10-22 11:00:00 13.5 6 Sur 15 Sur 0 963.7 -0.1 62
2019-10-22 10:00:00 9.3 9 Sur 16 Sur 0 963.9 -0.1 88
2019-10-22 09:00:00 7.6 7 Sur 12 Sur 0 963.3 -0.8 91
2019-10-22 08:00:00 7.5 7 Sur 11 Sur 0 963.8 -0.5 90
2019-10-22 07:00:00 7.5 6 Sur 9 Sur 0 964 -1.1 87
2019-10-22 06:00:00 8.6 5 Sur 8 Sur 0 964.1 -1.8 86
2019-10-22 05:00:00 9.2 2 Sudoeste 11 Sur 0 964.3 -2.1 85
2019-10-22 04:00:00 9.8 7 Sur 11 Sur 0 965.1 -1.3 83
2019-10-22 03:00:00 10.4 2 Sur 9 Sur 0 965.9 -1.1 80
2019-10-22 02:00:00 9.6 5 Sur 8 Sur 0 966.4 -0.8 86
2019-10-22 01:00:00 9.7 3 Sur 7 Sur 0 966.4 -0.9 84
2019-10-22 00:00:00 10.1 3 Sur 8 Sur 0 967 -0.3 83
2019-10-21 23:00:00 10.1 5 Sur 7 Sur 0 967.2 0.3 83
2019-10-21 22:00:00 10.5 6 Sur 9 Sur 0 967.3 0.6 82
2019-10-21 21:00:00 12 3 Sur 6 Sur 0 967.3 0.7 77
2019-10-21 20:00:00 14.5 2 Sur 10 Noroeste 0 966.9 0.2 67
2019-10-21 19:00:00 16.6 7 Noroeste 13 Noroeste 0 966.7 -0.4 48
2019-10-21 18:00:00 17.3 6 Norte 13 Norte 0 966.6 -1 42
2019-10-21 17:00:00 19.3 5 Noroeste 14 Norte 0 966.7 -1.5 38
2019-10-21 16:00:00 19.1 3 Norte 14 Noroeste 0 967.1 -1.7 37
2019-10-21 15:00:00 17.9 9 Norte 22 Norte 0 967.6 -1.4 43
2019-10-21 14:00:00 18.4 5 Nordeste 12 Norte 0 968.2 -0.8 40
2019-10-21 13:00:00 17.6 5 Noroeste 12 Noroeste 0 968.8 0 44
2019-10-21 12:00:00 16.4 3 Sudeste 8 Sur 0 969 0.7 54
2019-10-21 11:00:00 13.7 3 Sur 8 Sudeste 0 969 1 68
2019-10-21 10:00:00 10.4 4 Sur 11 Sudeste 0 968.8 1 85
2019-10-21 09:00:00 7.6 3 Sudeste 13 Sur 0 968.3 0.6 90
2019-10-21 08:00:00 7.9 7 Sur 12 Sur 0 968 0.3 89
2019-10-21 07:00:00 8.3 3 Sudeste 9 Sur 0 967.8 -0.2 88
2019-10-21 06:00:00 8.8 7 Sur 13 Sur 0 967.7 -0.4 87
2019-10-21 05:00:00 8.9 8 Sur 13 Sur 0 967.7 -0.4 86
2019-10-21 04:00:00 8.8 6 Sur 12 Sudeste 0 968 0.1 87
2019-10-21 03:00:00 9.3 6 Sur 9 Sur 0 968.1 -0.1 85
2019-10-21 02:00:00 10.4 5 Sudeste 17 Oeste 0 968.1 0.2 80
2019-10-21 01:00:00 11.8 9 Sudoeste 15 Oeste 0 967.9 0.6 74
2019-10-21 00:00:00 11.5 4 Oeste 14 Sudoeste 0 968.2 1.2 74
2019-10-20 23:00:00 10.4 7 Sudoeste 15 Sudoeste 0 967.9 1.3 82
2019-10-20 22:00:00 10.7 3 Sur 10 Sudoeste 0 967.3 1 77
2019-10-20 21:00:00 12.8 7 Sudoeste 14 Sudoeste 0 967 1 63
2019-10-20 20:00:00 13.8 7 Sudoeste 17 Oeste 0 966.6 0.8 59
2019-10-20 19:00:00 16.3 11 Oeste 24 Oeste 0 966.3 0.8 51
2019-10-20 18:00:00 17.2 13 Oeste 29 Noroeste 0 966 0.5 48
2019-10-20 17:00:00 17.1 18 Oeste 30 Oeste 0 965.8 0.3 44
2019-10-20 16:00:00 18 14 Oeste 29 Oeste 0 965.5 0 46
2019-10-20 15:00:00 17.3 16 Oeste 30 Oeste 0 965.5 0.1 53
2019-10-20 14:00:00 16.9 14 Oeste 27 Noroeste 0 965.5 0.4 53
2019-10-20 13:00:00 16.6 14 Oeste 28 Oeste 0 965.5 1.2 60
2019-10-20 12:00:00 15.3 14 Oeste 27 Sudoeste 0 965.4 1.5 62
2019-10-20 11:00:00 14.1 15 Oeste 26 Oeste 0 965.1 1.6 70
2019-10-20 10:00:00 12.7 10 Oeste 17 Oeste 0 964.3 1.7 79
2019-10-20 09:00:00 11.9 8 Oeste 15 Sudoeste 0 963.9 1.8 84
2019-10-20 08:00:00 11.8 6 Sudoeste 13 Sudoeste 0 963.5 0.7 84
2019-10-20 07:00:00 12.1 6 Oeste 16 Sudoeste 0 962.6 0.2 82
2019-10-20 06:00:00 12.8 6 Sudoeste 14 Sudoeste 0 962.1 -0.3 85
2019-10-20 05:00:00 13.3 5 Sudoeste 21 Sudoeste 0.2 962.8 0 85
2019-10-20 04:00:00 13.8 5 Sur 14 Sudoeste 0 962.4 0.6 82
2019-10-20 03:00:00 14.1 6 Sudoeste 24 Sudoeste 0 962.4 1 85
2019-10-20 02:00:00 14 11 Sudoeste 22 Oeste 0.2 962.8 1.6 86
2019-10-20 01:00:00 14.2 12 Sudoeste 41 Oeste 7.4 961.8 1.2 89
2019-10-20 00:00:00 16.7 12 Sudoeste 27 Oeste 2.6 961.4 0.3 88
2019-10-19 23:00:00 17.8 8 Sudoeste 33 Sudoeste 0.8 961.2 0 80
2019-10-19 22:00:00 19.6 17 Sudoeste 34 Sudoeste 0 960.6 -0.6 62
2019-10-19 21:00:00 20 14 Sur 33 Sur 0 961.1 -0.5 61
2019-10-19 20:00:00 20.6 17 Sudoeste 36 Sudoeste 0 961.2 -0.9 57
2019-10-19 19:00:00 21.6 16 Sur 27 Sur 0 961.2 -1.7 51
2019-10-19 18:00:00 22.3 15 Sudoeste 32 Sudoeste 0 961.6 -1.9 49
2019-10-19 17:00:00 22.7 18 Sudoeste 32 Sudoeste 0 962.1 -2.1 47
2019-10-19 16:00:00 22.7 13 Sudoeste 31 Oeste 0 962.9 -1.9 45
2019-10-19 15:00:00 22.6 18 Oeste 32 Sudoeste 0 963.5 -1.7 44
2019-10-19 14:00:00 24.5 15 Oeste 32 Oeste 0 964.2 -1.5 40
2019-10-19 13:00:00 23.2 13 Oeste 24 Sur 0 964.8 -0.9 47
2019-10-19 12:00:00 21.6 8 Sur 21 Sudeste 0 965.2 -0.6 57
2019-10-19 11:00:00 18.8 8 Sur 17 Sur 0 965.7 0.1 70
2019-10-19 10:00:00 17 9 Sur 15 Sur 0 965.7 -0.2 81
2019-10-19 09:00:00 14.6 5 Sur 9 Sur 0 965.8 -0.1 88
2019-10-19 08:00:00 14.2 5 Sur 8 Sur 0 965.6 -0.4 89
2019-10-19 07:00:00 13.6 4 Sur 8 Sur 0 965.9 -0.7 89
2019-10-19 06:00:00 13.4 4 Sur 7 Sur 0 965.9 -1.4 88
2019-10-19 05:00:00 14.6 5 Sur 7 Sur 0 966 -1.6 88
2019-10-19 04:00:00 15 4 Sur 6 Sur 0 966.6 -1.6 87
2019-10-19 03:00:00 14.2 5 Sur 8 Sur 0 967.3 -1.3 87
2019-10-19 02:00:00 15.7 4 Sur 9 Oeste 0 967.6 -1 85
2019-10-19 01:00:00 16.9 3 Sudeste 24 Sudoeste 0 968.2 -0.1 84
2019-10-19 00:00:00 17.6 10 Oeste 19 Oeste 0 968.6 0.2 83
2019-10-18 23:00:00 17.9 6 Oeste 20 Oeste 0 968.6 0.6 80
2019-10-18 22:00:00 18 8 Sudoeste 16 Sudoeste 0 968.3 0.2 79
2019-10-18 21:00:00 18.4 2 Sudoeste 7 Noroeste 0 968.4 -0.1 64
2019-10-18 20:00:00 21.2 6 Noroeste 17 Oeste 0 968 -0.8 57
2019-10-18 19:00:00 23.2 10 Noroeste 19 Noroeste 0 968.1 -1.1 50
2019-10-18 18:00:00 24.5 11 Noroeste -- -- 0 968.5 -1.5 46
2019-10-18 17:00:00 24.9 12 Noroeste 23 Noroeste 0 968.8 -1.9 45
2019-10-18 16:00:00 24.6 10 Noroeste 23 Oeste 0 969.2 -2.2 47
2019-10-18 15:00:00 24.8 11 Oeste 21 Oeste 0 970 -1.7 46
2019-10-18 14:00:00 24.3 12 Oeste 21 Oeste 0 970.7 -0.9 47
2019-10-18 13:00:00 23 8 Noroeste 18 Oeste 0 971.4 0 51
2019-10-18 12:00:00 21.5 4 Oeste 12 Sudoeste 0 971.7 0.8 55
2019-10-18 11:00:00 19.1 6 Sur 12 Sur 0 971.6 1 53
2019-10-18 10:00:00 15.3 6 Sur 11 Sur 0 971.4 0.7 55
2019-10-18 09:00:00 11.5 6 Sur 11 Sur 0 970.9 0.4 65
2019-10-18 08:00:00 11.6 8 Sur 10 Sur 0 970.6 -0.2 62
2019-10-18 07:00:00 11.7 7 Sur 10 Sur 0 970.7 -0.6 63
2019-10-18 06:00:00 12.4 7 Sur 14 Sur 0 970.5 -1.2 58
2019-10-18 05:00:00 12.7 11 Sur 17 Sur 0 970.8 -1 61
2019-10-18 04:00:00 13 8 Sur 12 Sur 0 971.3 -0.6 70
2019-10-18 03:00:00 13 7 Sur 10 Sur 0 971.7 -0.5 69
2019-10-18 02:00:00 13.8 7 Sur 13 Sur 0 971.8 -0.1 59
2019-10-18 01:00:00 15.4 6 Sudoeste 15 Sudoeste 0 971.9 0.3 67
2019-10-18 00:00:00 16 10 Sudoeste 17 Oeste 0 972.2 1.1 62